createdAt,value
2018-08-19T00:00:56.867Z,13.90
2018-08-19T00:03:24.518Z,14.00
2018-08-19T00:05:52.321Z,14.00
2018-08-19T00:08:19.867Z,13.40
2018-08-19T00:11:06.947Z,13.73
2018-08-19T00:13:35.606Z,14.20
2018-08-19T00:16:03.637Z,14.73
2018-08-19T00:18:31.300Z,14.47
2018-08-19T00:20:59.823Z,14.73
2018-08-19T00:23:34.753Z,13.37
2018-08-19T00:26:02.798Z,14.70
2018-08-19T00:28:30.835Z,14.97
2018-08-19T00:30:58.481Z,14.83
2018-08-19T00:33:26.051Z,14.47
2018-08-19T00:35:53.633Z,13.93
2018-08-19T00:38:21.584Z,13.70
2018-08-19T00:40:49.133Z,13.90
2018-08-19T00:43:16.667Z,14.13
2018-08-19T00:45:44.231Z,14.00
2018-08-19T00:48:12.207Z,15.33
2018-08-19T00:50:40.162Z,15.90
2018-08-19T00:53:08.805Z,14.53
2018-08-19T00:55:42.035Z,14.53
2018-08-19T00:58:18.165Z,13.30
2018-08-19T01:00:45.789Z,14.07
2018-08-19T01:03:13.603Z,16.57
2018-08-19T01:05:41.173Z,14.50
2018-08-19T01:08:09.904Z,13.50
2018-08-19T01:10:37.768Z,14.00
2018-08-19T01:13:05.423Z,13.97
2018-08-19T01:15:32.973Z,14.27
2018-08-19T01:18:00.639Z,15.27
2018-08-19T01:20:29.218Z,13.57
2018-08-19T01:22:56.773Z,16.17
2018-08-19T01:25:24.401Z,14.00
2018-08-19T01:27:52.113Z,15.20
2018-08-19T01:30:22.067Z,13.37
2018-08-19T01:32:49.665Z,14.80
2018-08-19T01:35:17.669Z,14.70
2018-08-19T01:37:45.324Z,14.73
2018-08-19T01:40:16.599Z,13.90
2018-08-19T01:42:44.761Z,13.93
2018-08-19T01:45:12.408Z,13.97
2018-08-19T01:47:39.984Z,14.00
2018-08-19T01:50:11.110Z,13.50
2018-08-19T01:52:39.104Z,13.87
2018-08-19T01:55:07.100Z,14.00
2018-08-19T01:57:40.264Z,14.40
2018-08-19T02:00:08.962Z,14.43
2018-08-19T02:02:51.241Z,15.33
2018-08-19T02:05:19.200Z,13.17
2018-08-19T02:07:46.828Z,15.30
2018-08-19T02:10:14.474Z,15.90
2018-08-19T02:12:42.008Z,14.60
2018-08-19T02:15:10.104Z,15.00
2018-08-19T02:17:42.881Z,13.27
2018-08-19T02:20:10.804Z,14.37
2018-08-19T02:22:39.142Z,15.07
2018-08-19T02:25:06.910Z,14.20
2018-08-19T02:27:34.461Z,14.60
2018-08-19T02:30:01.979Z,13.17
2018-08-19T02:32:30.340Z,13.50
2018-08-19T02:34:57.892Z,14.00
2018-08-19T02:37:25.451Z,13.67
2018-08-19T02:39:53.024Z,14.20
2018-08-19T02:42:26.721Z,13.83
2018-08-19T02:45:00.782Z,14.43
2018-08-19T02:47:28.539Z,14.57
2018-08-19T02:49:56.138Z,13.90
2018-08-19T02:52:27.435Z,14.47
2018-08-19T02:54:56.325Z,15.00
2018-08-19T02:57:24.053Z,15.23
2018-08-19T02:59:51.665Z,14.13
2018-08-19T03:02:26.520Z,14.90
2018-08-19T03:04:54.953Z,15.10
2018-08-19T03:07:24.857Z,15.33
2018-08-19T03:09:58.127Z,13.60
2018-08-19T03:12:26.880Z,14.30
2018-08-19T03:14:55.052Z,13.47
2018-08-19T03:17:23.234Z,14.00
2018-08-19T03:19:51.854Z,14.50
2018-08-19T03:22:19.511Z,14.40
2018-08-19T03:24:47.075Z,14.97
2018-08-19T03:27:14.615Z,14.47
2018-08-19T03:29:47.630Z,14.77
2018-08-19T03:32:15.151Z,14.70
2018-08-19T03:34:42.714Z,14.20
2018-08-19T03:37:11.716Z,13.83
2018-08-19T03:39:39.249Z,14.47
2018-08-19T03:42:06.786Z,14.83
2018-08-19T03:44:34.338Z,14.30
2018-08-19T03:47:05.356Z,13.70
2018-08-19T03:49:32.933Z,14.20
2018-08-19T03:52:01.321Z,14.70
2018-08-19T03:54:29.618Z,15.27
2018-08-19T03:56:57.184Z,14.93
2018-08-19T03:59:24.736Z,14.33
2018-08-19T04:01:52.294Z,14.97
2018-08-19T04:04:19.841Z,15.70
2018-08-19T04:06:48.421Z,16.40
2018-08-19T04:09:15.943Z,15.67
2018-08-19T04:11:44.582Z,15.70
2018-08-19T04:14:24.938Z,16.23
2018-08-19T04:16:52.985Z,14.97
2018-08-19T04:19:22.759Z,15.00
2018-08-19T04:21:50.312Z,15.20
2018-08-19T04:24:17.824Z,15.03
2018-08-19T04:26:45.390Z,15.03
2018-08-19T04:29:31.931Z,15.80
2018-08-19T04:32:00.203Z,14.20
2018-08-19T04:34:27.735Z,13.03
2018-08-19T04:36:55.349Z,12.80
2018-08-19T04:39:22.915Z,13.27
2018-08-19T04:41:50.446Z,14.80
2018-08-19T04:44:17.997Z,14.10
2018-08-19T04:46:45.554Z,14.33
2018-08-19T04:49:14.117Z,14.07
2018-08-19T04:51:41.663Z,14.67
2018-08-19T04:54:09.219Z,14.20
2018-08-19T04:56:36.754Z,13.40
2018-08-19T04:59:04.483Z,14.80
2018-08-19T05:01:32.025Z,14.13
2018-08-19T05:03:59.597Z,14.03
2018-08-19T05:06:27.133Z,14.67
2018-08-19T05:08:54.683Z,13.90
2018-08-19T05:11:22.322Z,12.43
2018-08-19T05:13:49.863Z,13.07
2018-08-19T05:16:17.425Z,14.00
2018-08-19T05:18:49.842Z,12.50
2018-08-19T05:21:17.845Z,12.57
2018-08-19T05:23:46.294Z,12.50
2018-08-19T05:26:14.144Z,11.80
2018-08-19T05:28:44.420Z,14.20
2018-08-19T05:31:11.983Z,13.53
2018-08-19T05:33:41.429Z,12.43
2018-08-19T05:36:09.018Z,13.17
2018-08-19T05:38:36.554Z,11.87
2018-08-19T05:41:04.229Z,13.13
2018-08-19T05:43:31.838Z,13.70
2018-08-19T05:46:00.798Z,12.83
2018-08-19T05:48:29.178Z,13.37
2018-08-19T05:50:57.081Z,13.60
2018-08-19T05:53:24.677Z,12.93
2018-08-19T05:55:52.560Z,12.23
2018-08-19T05:58:20.346Z,11.87
2018-08-19T06:00:59.959Z,12.13
2018-08-19T06:03:27.634Z,13.43
2018-08-19T06:05:55.319Z,12.00
2018-08-19T06:08:22.866Z,12.27
2018-08-19T06:10:50.466Z,13.30
2018-08-19T06:13:17.982Z,12.93
2018-08-19T06:15:45.654Z,12.87
2018-08-19T06:18:13.256Z,11.50
2018-08-19T06:20:40.803Z,11.70
2018-08-19T06:23:08.342Z,11.37
2018-08-19T06:25:35.892Z,12.13
2018-08-19T06:28:03.540Z,10.80
2018-08-19T06:30:31.169Z,11.47
2018-08-19T06:32:59.342Z,12.10
2018-08-19T06:35:26.917Z,11.17
2018-08-19T06:37:54.478Z,10.50
2018-08-19T06:40:23.142Z,11.47
2018-08-19T06:42:50.713Z,9.93
2018-08-19T06:45:18.292Z,10.50
2018-08-19T06:47:45.865Z,11.13
2018-08-19T06:50:25.128Z,11.30
2018-08-19T06:52:53.536Z,12.13
2018-08-19T06:55:21.311Z,10.80
2018-08-19T06:57:48.976Z,10.97
2018-08-19T07:00:35.227Z,10.77
2018-08-19T07:03:04.253Z,11.00
2018-08-19T07:05:32.541Z,9.80
2018-08-19T07:08:01.178Z,10.13
2018-08-19T07:10:44.568Z,10.30
2018-08-19T07:13:14.373Z,9.03
2018-08-19T07:15:43.073Z,10.77
2018-08-19T07:18:12.734Z,9.47
2018-08-19T07:20:41.107Z,10.03
2018-08-19T07:23:09.313Z,10.33
2018-08-19T07:25:38.818Z,10.53
2018-08-19T07:28:07.681Z,9.70
2018-08-19T07:30:35.217Z,10.10
2018-08-19T07:33:02.861Z,9.70
2018-08-19T07:35:31.385Z,9.00
2018-08-19T07:37:59.644Z,8.97
2018-08-19T07:40:27.173Z,8.80
2018-08-19T07:42:54.785Z,9.40
2018-08-19T07:45:22.327Z,9.43
2018-08-19T07:47:50.085Z,9.63
2018-08-19T07:50:17.607Z,9.37
2018-08-19T07:52:45.165Z,9.40
2018-08-19T07:55:12.763Z,10.00
2018-08-19T07:57:40.853Z,9.40
2018-08-19T08:00:09.039Z,8.60
2018-08-19T08:02:36.691Z,9.30
2018-08-19T08:05:05.061Z,10.83
2018-08-19T08:07:32.794Z,9.50
2018-08-19T08:10:01.067Z,8.93
2018-08-19T08:12:29.626Z,10.10
2018-08-19T08:14:57.299Z,9.30
2018-08-19T08:17:26.094Z,8.93
2018-08-19T08:20:01.296Z,8.80
2018-08-19T08:22:29.663Z,10.07
2018-08-19T08:24:57.543Z,8.40
2018-08-19T08:27:25.178Z,9.67
2018-08-19T08:29:52.942Z,8.70
2018-08-19T08:32:20.542Z,9.60
2018-08-19T08:34:48.127Z,9.03
2018-08-19T08:37:15.736Z,8.30
2018-08-19T08:39:43.308Z,8.63
2018-08-19T08:42:10.868Z,7.50
2018-08-19T08:44:38.489Z,8.40
2018-08-19T08:47:08.714Z,8.53
2018-08-19T08:49:42.034Z,8.33
2018-08-19T08:52:15.986Z,8.27
2018-08-19T08:54:50.266Z,7.50
2018-08-19T08:57:18.982Z,7.83
2018-08-19T08:59:46.617Z,7.83
2018-08-19T09:02:14.188Z,7.90
2018-08-19T09:04:41.802Z,8.90
2018-08-19T09:07:09.504Z,8.87
2018-08-19T09:09:38.332Z,8.10
2018-08-19T09:12:05.944Z,7.53
2018-08-19T09:14:33.579Z,7.97
2018-08-19T09:17:01.302Z,8.20
2018-08-19T09:19:29.619Z,7.17
2018-08-19T09:21:57.232Z,8.73
2018-08-19T09:24:24.810Z,8.60
2018-08-19T09:26:52.488Z,7.30
2018-08-19T09:29:20.016Z,6.93
2018-08-19T09:31:47.670Z,8.57
2018-08-19T09:34:15.211Z,7.80
2018-08-19T09:36:42.788Z,8.83
2018-08-19T09:39:11.419Z,7.07
2018-08-19T09:41:39.014Z,7.20
2018-08-19T09:44:06.674Z,8.23
2018-08-19T09:46:34.233Z,7.40
2018-08-19T09:49:01.832Z,8.37
2018-08-19T09:51:29.924Z,7.70
2018-08-19T09:53:57.506Z,7.80
2018-08-19T09:56:30.833Z,8.00
2018-08-19T09:59:04.736Z,8.30
2018-08-19T10:01:38.086Z,6.50
2018-08-19T10:04:25.344Z,6.50
2018-08-19T10:07:01.581Z,7.30
2018-08-19T10:09:29.966Z,8.40
2018-08-19T10:11:57.561Z,7.90
2018-08-19T10:14:25.133Z,7.30
2018-08-19T10:16:52.765Z,7.40
2018-08-19T10:19:21.541Z,6.83
2018-08-19T10:21:49.113Z,6.87
2018-08-19T10:24:23.035Z,6.50
2018-08-19T10:26:50.677Z,5.10
2018-08-19T10:29:18.281Z,6.90
2018-08-19T10:31:52.022Z,6.00
2018-08-19T10:34:23.691Z,6.63
2018-08-19T10:36:51.223Z,6.27
2018-08-19T10:39:18.856Z,6.43
2018-08-19T10:41:46.425Z,5.53
2018-08-19T10:44:13.950Z,5.97
2018-08-19T10:46:42.455Z,6.33
2018-08-19T10:49:10.441Z,5.53
2018-08-19T10:51:40.474Z,5.00
2018-08-19T10:54:08.062Z,5.80
2018-08-19T10:56:35.721Z,6.20
2018-08-19T10:59:03.420Z,5.67
2018-08-19T11:01:31.010Z,5.73
2018-08-19T11:03:59.506Z,6.10
2018-08-19T11:06:27.130Z,4.87
2018-08-19T11:08:56.809Z,5.87
2018-08-19T11:11:26.194Z,5.80
2018-08-19T11:13:53.761Z,5.80
2018-08-19T11:16:21.346Z,5.10
2018-08-19T11:18:49.883Z,5.70
2018-08-19T11:21:25.099Z,6.53
2018-08-19T11:23:52.968Z,6.20
2018-08-19T11:26:20.593Z,5.60
2018-08-19T11:28:54.257Z,6.03
2018-08-19T11:31:27.733Z,5.50
2018-08-19T11:33:56.851Z,5.40
2018-08-19T11:36:31.679Z,5.40
2018-08-19T11:39:00.266Z,5.67
2018-08-19T11:48:17.228Z,3.80
2018-08-19T11:50:45.041Z,5.10
2018-08-19T11:53:12.596Z,4.00
2018-08-19T11:55:40.344Z,4.40
2018-08-19T11:58:07.962Z,4.67
2018-08-19T12:00:43.478Z,4.77
2018-08-19T12:03:11.106Z,4.03
2018-08-19T12:05:38.665Z,4.30
2018-08-19T12:08:06.561Z,4.70
2018-08-19T12:10:34.094Z,4.70
2018-08-19T12:13:01.684Z,5.03
2018-08-19T12:15:29.935Z,4.87
2018-08-19T12:17:57.506Z,4.17
2018-08-19T12:20:33.590Z,4.53
2018-08-19T12:23:01.149Z,3.70
2018-08-19T12:25:29.708Z,4.47
2018-08-19T12:27:57.251Z,3.90
2018-08-19T12:30:24.793Z,4.40
2018-08-19T12:33:02.447Z,4.50
2018-08-19T12:35:30.816Z,3.80
2018-08-19T12:37:59.016Z,3.67
2018-08-19T12:40:26.672Z,4.20
2018-08-19T12:42:54.313Z,4.00
2018-08-19T12:45:22.845Z,3.80
2018-08-19T12:47:50.408Z,4.23
2018-08-19T12:50:18.050Z,4.30
2018-08-19T12:52:45.672Z,4.20
2018-08-19T12:55:14.891Z,3.90
2018-08-19T12:57:43.001Z,4.13
2018-08-19T13:00:15.771Z,3.80
2018-08-19T13:02:44.686Z,4.50
2018-08-19T13:05:13.399Z,4.03
2018-08-19T13:07:40.939Z,4.40
2018-08-19T13:10:08.685Z,3.80
2018-08-19T13:12:41.982Z,4.20
2018-08-19T13:15:09.771Z,4.00
2018-08-19T13:17:37.497Z,3.73
2018-08-19T13:20:07.012Z,3.90
2018-08-19T13:22:39.544Z,4.77
2018-08-19T13:25:07.138Z,4.40
2018-08-19T13:27:34.710Z,3.60
2018-08-19T13:30:02.312Z,4.17
2018-08-19T13:32:30.851Z,3.73
2018-08-19T13:34:58.504Z,4.87
2018-08-19T13:37:26.110Z,3.77
2018-08-19T13:39:53.678Z,4.30
2018-08-19T13:42:21.356Z,5.30
2018-08-19T13:44:49.076Z,4.53
2018-08-19T13:47:16.646Z,4.50
2018-08-19T13:49:44.224Z,4.40
2018-08-19T13:52:11.794Z,4.00
2018-08-19T13:55:45.955Z,4.93
2018-08-19T13:58:13.525Z,4.00
2018-08-19T14:00:41.086Z,4.97
2018-08-19T14:03:16.065Z,4.50
2018-08-19T14:05:43.643Z,4.90
2018-08-19T14:08:11.192Z,4.40
2018-08-19T14:10:38.734Z,4.70
2018-08-19T14:13:06.288Z,4.40
2018-08-19T14:15:33.866Z,4.07
2018-08-19T14:18:01.462Z,4.50
2018-08-19T14:20:29.104Z,3.47
2018-08-19T14:22:56.704Z,4.40
2018-08-19T14:25:24.287Z,3.57
2018-08-19T14:27:51.848Z,3.83
2018-08-19T14:30:19.498Z,3.83
2018-08-19T14:32:47.777Z,4.20
2018-08-19T14:35:15.393Z,3.90
2018-08-19T14:37:43.036Z,3.90
2018-08-19T14:40:13.082Z,3.93
2018-08-19T14:42:40.632Z,3.27
2018-08-19T14:45:08.243Z,4.10
2018-08-19T14:47:35.843Z,3.60
2018-08-19T14:50:07.257Z,3.70
2018-08-19T14:52:34.856Z,3.87
2018-08-19T14:55:02.477Z,4.10
2018-08-19T14:57:30.638Z,3.67
2018-08-19T14:59:58.797Z,3.70
2018-08-19T15:02:26.420Z,3.53
2018-08-19T15:04:53.967Z,4.30
2018-08-19T15:07:21.518Z,4.10
2018-08-19T15:09:51.698Z,3.60
2018-08-19T15:12:21.470Z,3.90
2018-08-19T15:14:49.636Z,3.77
2018-08-19T15:17:17.222Z,3.63
2018-08-19T15:19:47.722Z,3.57
2018-08-19T15:22:15.670Z,3.67
2018-08-19T15:24:43.354Z,4.90
2018-08-19T15:27:10.942Z,4.20
2018-08-19T15:29:40.561Z,3.93
2018-08-19T15:32:08.355Z,4.37
2018-08-19T15:34:35.952Z,4.40
2018-08-19T15:37:03.641Z,4.27
2018-08-19T15:39:31.326Z,4.10
2018-08-19T15:41:59.625Z,4.20
2018-08-19T15:44:27.253Z,4.00
2018-08-19T15:46:54.826Z,3.83
2018-08-19T15:49:23.236Z,4.30
2018-08-19T15:51:50.981Z,4.10
2018-08-19T15:54:18.616Z,4.13
2018-08-19T15:56:46.209Z,3.33
2018-08-19T15:59:13.766Z,3.60
2018-08-19T16:01:41.368Z,4.03
2018-08-19T16:04:15.356Z,3.87
2018-08-19T16:06:44.654Z,3.73
2018-08-19T16:09:13.282Z,3.83
2018-08-19T16:11:41.096Z,4.07
2018-08-19T16:14:15.122Z,3.90
2018-08-19T16:16:42.718Z,3.47
2018-08-19T16:19:10.388Z,3.90
2018-08-19T16:21:37.948Z,3.90
2018-08-19T16:24:05.864Z,3.60
2018-08-19T16:26:33.454Z,4.27
2018-08-19T16:29:01.077Z,4.47
2018-08-19T16:31:29.184Z,4.60
2018-08-19T16:33:56.906Z,4.50
2018-08-19T16:36:24.488Z,4.00
2018-08-19T16:38:52.472Z,3.97
2018-08-19T16:41:20.208Z,4.53
2018-08-19T16:43:47.775Z,3.80
2018-08-19T16:46:15.393Z,4.50
2018-08-19T16:48:42.976Z,4.00
2018-08-19T16:51:10.553Z,3.93
2018-08-19T16:53:38.157Z,4.03
2018-08-19T16:56:05.973Z,4.57
2018-08-19T16:58:33.550Z,4.27
2018-08-19T17:01:01.134Z,4.80
2018-08-19T17:03:35.121Z,4.60
2018-08-19T17:06:03.253Z,4.73
2018-08-19T17:08:30.835Z,4.47
2018-08-19T17:10:58.502Z,3.40
2018-08-19T17:13:26.049Z,4.20
2018-08-19T17:15:53.775Z,4.37
2018-08-19T17:18:21.379Z,4.10
2018-08-19T17:20:48.989Z,4.67
2018-08-19T17:23:19.847Z,3.83
2018-08-19T17:25:47.491Z,4.70
2018-08-19T17:28:21.147Z,4.47
2018-08-19T17:30:49.963Z,3.90
2018-08-19T17:33:17.566Z,4.90
2018-08-19T17:35:47.123Z,5.20
2018-08-19T17:38:15.983Z,5.30
2018-08-19T17:40:43.591Z,7.17
2018-08-19T17:43:11.261Z,7.77
2018-08-19T17:45:38.941Z,9.00
2018-08-19T17:48:07.597Z,7.13
2018-08-19T17:50:37.147Z,6.60
2018-08-19T17:53:05.047Z,6.00
2018-08-19T17:55:32.661Z,5.83
2018-08-19T17:58:00.513Z,5.87
2018-08-19T18:00:28.112Z,5.17
2018-08-19T18:02:56.273Z,5.70
2018-08-19T18:05:23.985Z,4.77
2018-08-19T18:07:52.796Z,4.73
2018-08-19T18:10:20.414Z,4.93
2018-08-19T18:12:48.452Z,5.00
2018-08-19T18:15:16.154Z,4.90
2018-08-19T18:17:58.088Z,6.07
2018-08-19T18:20:29.434Z,5.13
2018-08-19T18:22:57.531Z,4.83
2018-08-19T18:25:25.429Z,5.53
2018-08-19T18:27:53.104Z,5.20
2018-08-19T18:30:22.930Z,6.00
2018-08-19T18:32:50.826Z,5.07
2018-08-19T18:35:19.066Z,6.17
2018-08-19T18:37:46.748Z,5.70
2018-08-19T18:40:32.956Z,5.80
2018-08-19T18:43:02.090Z,5.73
2018-08-19T18:45:31.048Z,6.03
2018-08-19T18:48:01.234Z,5.60
2018-08-19T18:50:29.400Z,6.10
2018-08-19T18:52:57.042Z,6.73
2018-08-19T18:55:24.986Z,6.37
2018-08-19T18:57:54.769Z,6.30
2018-08-19T19:00:24.661Z,5.10
2018-08-19T19:02:55.697Z,6.00
2018-08-19T19:05:33.264Z,5.90
2018-08-19T19:08:05.954Z,6.00
2018-08-19T19:10:33.573Z,6.90
2018-08-19T19:13:01.683Z,6.60
2018-08-19T19:15:33.323Z,6.40
2018-08-19T19:18:01.224Z,6.07
2018-08-19T19:20:30.189Z,6.07
2018-08-19T19:23:02.684Z,6.80
2018-08-19T19:25:37.948Z,5.63
2018-08-19T19:28:06.161Z,6.33
2018-08-19T19:30:34.404Z,6.40
2018-08-19T19:33:12.439Z,6.40
2018-08-19T19:35:40.216Z,6.33
2018-08-19T19:38:08.394Z,7.40
2018-08-19T19:40:36.236Z,6.83
2018-08-19T19:43:04.591Z,6.83
2018-08-19T19:45:55.049Z,7.17
2018-08-19T19:48:22.872Z,6.67
2018-08-19T19:50:50.982Z,6.63
2018-08-19T19:53:18.704Z,6.60
2018-08-19T19:55:46.315Z,7.43
2018-08-19T19:58:14.082Z,7.00
2018-08-19T20:00:52.909Z,6.70
2018-08-19T20:03:21.181Z,7.03
2018-08-19T20:05:48.840Z,7.23
2018-08-19T20:08:16.656Z,7.80
2018-08-19T20:10:44.324Z,6.50
2018-08-19T20:13:11.963Z,6.40
2018-08-19T20:15:39.664Z,6.27
2018-08-19T20:18:09.115Z,6.60
2018-08-19T20:20:37.869Z,6.40
2018-08-19T20:23:10.648Z,7.53
2018-08-19T20:25:39.020Z,6.93
2018-08-19T20:28:08.990Z,6.70
2018-08-19T20:30:37.904Z,7.20
2018-08-19T20:33:08.751Z,7.37
2018-08-19T20:35:36.364Z,7.20
2018-08-19T20:38:03.944Z,8.40
2018-08-19T20:40:31.574Z,8.13
2018-08-19T20:43:00.869Z,7.87
2018-08-19T20:45:28.502Z,7.90
2018-08-19T20:47:56.067Z,7.63
2018-08-19T20:50:24.290Z,7.83
2018-08-19T20:52:51.942Z,7.63
2018-08-19T20:55:19.512Z,7.80
2018-08-19T20:57:47.070Z,7.73
2018-08-19T21:00:14.758Z,8.50
2018-08-19T21:02:42.504Z,8.60
2018-08-19T21:05:10.524Z,7.97
2018-08-19T21:07:38.244Z,7.90
2018-08-19T21:10:07.041Z,7.80
2018-08-19T21:12:34.942Z,7.70
2018-08-19T21:15:02.540Z,7.60
2018-08-19T21:17:31.202Z,9.03
2018-08-19T21:19:59.596Z,8.17
2018-08-19T21:22:27.233Z,9.40
2018-08-19T21:24:54.787Z,8.20
2018-08-19T21:27:22.326Z,8.73
2018-08-19T21:29:49.912Z,8.40
2018-08-19T21:32:17.622Z,9.37
2018-08-19T21:34:45.720Z,8.23
2018-08-19T21:37:16.344Z,10.60
2018-08-19T21:39:44.218Z,9.10
2018-08-19T21:42:12.121Z,8.83
2018-08-19T21:44:39.673Z,8.87
2018-08-19T21:47:07.192Z,9.23
2018-08-19T21:49:34.931Z,10.03
2018-08-19T21:52:02.499Z,10.50
2018-08-19T21:54:30.816Z,9.60
2018-08-19T21:56:59.052Z,8.87
2018-08-19T21:59:26.623Z,8.60
2018-08-19T22:01:57.117Z,9.50
2018-08-19T22:04:24.828Z,9.13
2018-08-19T22:06:52.435Z,8.90
2018-08-19T22:09:34.170Z,9.00
2018-08-19T22:12:02.290Z,9.63
2018-08-19T22:14:31.127Z,9.93
2018-08-19T22:17:04.362Z,9.40
2018-08-19T22:19:32.186Z,9.77
2018-08-19T22:22:00.818Z,9.67
2018-08-19T22:24:28.896Z,10.83
2018-08-19T22:26:57.954Z,9.53
2018-08-19T22:29:25.502Z,10.17
2018-08-19T22:31:53.197Z,9.77
2018-08-19T22:34:20.732Z,9.40
2018-08-19T22:36:48.308Z,9.00
2018-08-19T22:39:17.202Z,9.40
2018-08-19T22:41:47.100Z,10.60
2018-08-19T22:44:14.758Z,9.40
2018-08-19T22:46:42.313Z,10.00
2018-08-19T22:49:09.854Z,10.60
2018-08-19T22:51:37.413Z,10.97
2018-08-19T22:54:04.961Z,10.50
2018-08-19T22:56:32.507Z,10.10
2018-08-19T22:59:00.762Z,8.90
2018-08-19T23:01:33.963Z,10.30
2018-08-19T23:04:02.255Z,9.70
2018-08-19T23:06:30.968Z,9.77
2018-08-19T23:08:58.922Z,10.23
2018-08-19T23:11:34.557Z,9.47
2018-08-19T23:14:13.587Z,9.47
2018-08-19T23:16:41.261Z,9.47
2018-08-19T23:19:08.805Z,11.03
2018-08-19T23:21:36.370Z,10.00
2018-08-19T23:24:04.119Z,9.63
2018-08-19T23:26:31.695Z,9.20
2018-08-19T23:28:59.590Z,9.87
2018-08-19T23:31:27.117Z,9.37
2018-08-19T23:33:54.669Z,9.40
2018-08-19T23:36:22.195Z,10.10
2018-08-19T23:38:49.723Z,10.27
2018-08-19T23:41:17.277Z,9.03
2018-08-19T23:43:44.859Z,9.03
2018-08-19T23:46:12.447Z,9.43
2018-08-19T23:48:39.972Z,9.87
2018-08-19T23:51:10.698Z,8.90
2018-08-19T23:53:38.306Z,10.23
2018-08-19T23:56:05.901Z,9.63
2018-08-19T23:58:33.433Z,9.07
